createdAt,value
2019-05-29T00:02:03.496Z,2.53
2019-05-29T00:04:08.135Z,2.37
2019-05-29T00:06:12.440Z,5.27
2019-05-29T00:08:16.733Z,2.37
2019-05-29T00:10:21.752Z,2.57
2019-05-29T00:12:25.747Z,2.50
2019-05-29T00:14:29.586Z,3.47
2019-05-29T00:16:33.488Z,3.03
2019-05-29T00:18:37.416Z,2.47
2019-05-29T00:20:41.434Z,2.73
2019-05-29T00:22:45.295Z,3.40
2019-05-29T00:24:50.836Z,2.83
2019-05-29T00:26:55.071Z,2.57
2019-05-29T00:28:58.926Z,3.77
2019-05-29T00:31:02.786Z,3.17
2019-05-29T00:33:07.884Z,5.20
2019-05-29T00:35:12.293Z,2.50
2019-05-29T00:37:19.203Z,2.40
2019-05-29T00:39:23.128Z,2.40
2019-05-29T00:41:26.994Z,3.83
2019-05-29T00:43:30.879Z,2.77
2019-05-29T00:45:34.773Z,2.53
2019-05-29T00:47:42.320Z,3.60
2019-05-29T00:49:46.977Z,3.13
2019-05-29T00:51:50.881Z,2.90
2019-05-29T00:53:54.781Z,3.70
2019-05-29T00:55:58.619Z,3.23
2019-05-29T00:58:03.626Z,2.70
2019-05-29T01:00:08.947Z,3.57
2019-05-29T01:02:13.758Z,3.10
2019-05-29T01:04:17.915Z,3.70
2019-05-29T01:06:21.961Z,3.20
2019-05-29T01:08:25.899Z,2.77
2019-05-29T01:10:29.779Z,2.70
2019-05-29T01:12:33.651Z,1.97
2019-05-29T01:14:49.543Z,4.30
2019-05-29T01:16:43.137Z,2.90
2019-05-29T01:18:46.978Z,3.27
2019-05-29T01:20:51.401Z,2.40
2019-05-29T01:22:55.398Z,2.83
2019-05-29T01:24:59.323Z,2.60
2019-05-29T01:27:03.169Z,2.63
2019-05-29T01:29:07.068Z,3.23
2019-05-29T01:31:10.914Z,3.37
2019-05-29T01:33:17.514Z,2.77
2019-05-29T01:35:22.024Z,2.27
2019-05-29T01:37:26.454Z,2.67
2019-05-29T01:39:30.474Z,3.00
2019-05-29T01:41:34.333Z,2.70
2019-05-29T01:43:38.225Z,3.17
2019-05-29T01:45:50.595Z,2.67
2019-05-29T01:47:54.949Z,2.23
2019-05-29T01:49:58.830Z,3.07
2019-05-29T01:52:02.674Z,2.80
2019-05-29T01:54:06.543Z,2.57
2019-05-29T01:56:10.429Z,2.20
2019-05-29T01:58:15.551Z,2.50
2019-05-29T02:00:20.242Z,3.27
2019-05-29T02:02:24.240Z,4.67
2019-05-29T02:04:28.217Z,2.70
2019-05-29T02:06:32.158Z,3.83
2019-05-29T02:08:35.995Z,2.40
2019-05-29T02:10:39.871Z,2.50
2019-05-29T02:12:43.786Z,5.73
2019-05-29T02:14:47.651Z,3.37
2019-05-29T02:16:51.514Z,3.77
2019-05-29T02:18:55.397Z,2.87
2019-05-29T02:20:59.291Z,3.00
2019-05-29T02:23:03.128Z,3.30
2019-05-29T02:25:10.661Z,3.63
2019-05-29T02:27:14.498Z,2.83
2019-05-29T02:29:18.720Z,2.60
2019-05-29T02:31:24.671Z,2.80
2019-05-29T02:33:28.334Z,3.63
2019-05-29T02:35:32.481Z,2.80
2019-05-29T02:37:36.520Z,3.03
2019-05-29T02:39:40.538Z,2.37
2019-05-29T02:41:44.725Z,3.50
2019-05-29T02:43:48.997Z,2.80
2019-05-29T02:45:55.039Z,3.23
2019-05-29T02:47:59.110Z,3.30
2019-05-29T02:50:04.040Z,3.87
2019-05-29T02:52:08.423Z,2.97
2019-05-29T02:54:12.416Z,3.70
2019-05-29T02:56:18.046Z,3.10
2019-05-29T02:58:23.988Z,4.73
2019-05-29T03:00:33.776Z,3.50
2019-05-29T03:02:37.825Z,2.80
2019-05-29T03:04:42.128Z,3.53
2019-05-29T03:06:47.012Z,2.60
2019-05-29T03:08:51.025Z,4.20
2019-05-29T03:10:54.922Z,3.13
2019-05-29T03:12:58.768Z,3.17
2019-05-29T03:15:02.637Z,5.23
2019-05-29T03:17:06.514Z,3.27
2019-05-29T03:19:10.367Z,4.60
2019-05-29T03:21:14.261Z,4.40
2019-05-29T03:23:18.115Z,4.20
2019-05-29T03:25:22.043Z,3.63
2019-05-29T03:27:27.752Z,3.73
2019-05-29T03:29:31.932Z,3.43
2019-05-29T03:31:43.391Z,3.27
2019-05-29T03:33:48.970Z,4.73
2019-05-29T03:35:48.624Z,4.60
2019-05-29T03:37:52.501Z,3.63
2019-05-29T03:39:56.384Z,4.83
2019-05-29T03:42:00.294Z,4.27
2019-05-29T03:44:04.257Z,5.13
2019-05-29T03:46:26.485Z,3.80
2019-05-29T03:48:13.657Z,4.40
2019-05-29T03:50:18.298Z,4.70
2019-05-29T03:52:22.186Z,3.67
2019-05-29T03:54:26.589Z,3.53
2019-05-29T03:56:32.590Z,5.27
2019-05-29T03:58:37.748Z,4.07
2019-05-29T04:00:46.345Z,4.80
2019-05-29T04:02:47.814Z,4.07
2019-05-29T04:04:52.556Z,4.07
2019-05-29T04:06:57.637Z,6.10
2019-05-29T04:09:05.102Z,4.80
2019-05-29T04:11:11.039Z,5.47
2019-05-29T04:13:15.232Z,5.87
2019-05-29T04:15:19.118Z,6.03
2019-05-29T04:17:24.901Z,5.30
2019-05-29T04:19:30.132Z,4.90
2019-05-29T04:21:38.679Z,5.67
2019-05-29T04:23:45.371Z,6.17
2019-05-29T04:25:51.601Z,4.80
2019-05-29T04:27:58.203Z,8.10
2019-05-29T04:30:04.062Z,5.87
2019-05-29T04:32:08.159Z,5.47
2019-05-29T04:34:12.013Z,6.23
2019-05-29T04:36:15.970Z,10.13
2019-05-29T04:38:19.873Z,7.57
2019-05-29T04:40:23.740Z,7.83
2019-05-29T04:42:29.164Z,6.53
2019-05-29T04:44:33.929Z,6.40
2019-05-29T04:46:40.558Z,7.03
2019-05-29T04:48:44.322Z,5.43
2019-05-29T04:50:48.162Z,4.10
2019-05-29T04:52:55.855Z,6.80
2019-05-29T04:54:59.787Z,10.13
2019-05-29T04:57:04.174Z,4.90
2019-05-29T04:59:09.467Z,6.73
2019-05-29T05:01:13.401Z,7.43
2019-05-29T05:03:17.346Z,6.73
2019-05-29T05:05:21.310Z,8.07
2019-05-29T05:07:29.548Z,7.87
2019-05-29T05:09:37.574Z,7.50
2019-05-29T05:11:42.377Z,8.90
2019-05-29T05:13:47.964Z,7.77
2019-05-29T05:15:53.711Z,8.10
2019-05-29T05:17:57.645Z,6.63
2019-05-29T05:20:01.806Z,6.63
2019-05-29T05:22:05.969Z,7.13
2019-05-29T05:24:11.375Z,6.60
2019-05-29T05:26:17.603Z,6.13
2019-05-29T05:28:22.049Z,7.33
2019-05-29T05:30:26.308Z,8.07
2019-05-29T05:32:30.599Z,5.33
2019-05-29T05:34:34.772Z,8.87
2019-05-29T05:36:38.925Z,7.40
2019-05-29T05:38:42.843Z,8.20
2019-05-29T05:40:46.766Z,4.47
2019-05-29T05:42:50.648Z,7.77
2019-05-29T05:44:56.818Z,7.40
2019-05-29T05:47:00.952Z,5.77
2019-05-29T05:49:05.032Z,7.83
2019-05-29T05:51:08.949Z,8.50
2019-05-29T05:53:12.850Z,8.20
2019-05-29T05:55:19.352Z,8.97
2019-05-29T05:57:23.893Z,8.67
2019-05-29T05:59:27.819Z,10.47
2019-05-29T06:01:33.704Z,9.00
2019-05-29T06:03:40.579Z,6.70
2019-05-29T06:05:44.564Z,6.27
2019-05-29T06:07:48.469Z,9.47
2019-05-29T06:09:52.352Z,6.17
2019-05-29T06:11:56.627Z,6.07
2019-05-29T06:14:00.894Z,3.53
2019-05-29T06:16:04.864Z,4.53
2019-05-29T06:18:20.411Z,8.23
2019-05-29T06:20:14.336Z,7.77
2019-05-29T06:22:20.467Z,7.60
2019-05-29T06:24:24.477Z,4.60
2019-05-29T06:26:28.360Z,6.17
2019-05-29T06:28:32.978Z,4.67
2019-05-29T06:30:39.327Z,6.93
2019-05-29T06:32:43.631Z,5.73
2019-05-29T06:34:47.563Z,4.70
2019-05-29T06:36:52.781Z,5.60
2019-05-29T06:38:56.705Z,2.77
2019-05-29T06:41:01.378Z,3.73
2019-05-29T06:43:06.589Z,3.53
2019-05-29T06:45:11.454Z,7.07
2019-05-29T06:47:15.432Z,3.30
2019-05-29T06:49:19.371Z,3.63
2019-05-29T06:51:23.308Z,2.40
2019-05-29T06:53:27.502Z,2.20
2019-05-29T06:55:31.839Z,7.43
2019-05-29T06:57:36.178Z,2.20
2019-05-29T06:59:40.538Z,1.83
2019-05-29T07:01:44.526Z,1.50
2019-05-29T07:03:48.420Z,5.60
2019-05-29T07:05:52.974Z,3.73
2019-05-29T07:07:57.138Z,3.17
2019-05-29T07:10:01.059Z,2.93
2019-05-29T07:12:05.020Z,1.90
2019-05-29T07:14:08.966Z,2.87
2019-05-29T07:16:12.899Z,2.33
2019-05-29T07:18:16.958Z,2.20
2019-05-29T07:20:20.819Z,4.20
2019-05-29T07:22:24.729Z,2.87
2019-05-29T07:24:28.652Z,1.57
2019-05-29T07:26:32.548Z,2.47
2019-05-29T07:28:37.218Z,1.47
2019-05-29T07:30:44.119Z,2.60
2019-05-29T07:32:56.660Z,1.90
2019-05-29T07:35:03.350Z,3.43
2019-05-29T07:36:57.981Z,3.63
2019-05-29T07:39:08.952Z,5.53
2019-05-29T07:41:13.290Z,1.37
2019-05-29T07:43:17.172Z,2.37
2019-05-29T07:45:21.232Z,5.10
2019-05-29T07:47:25.131Z,4.20
2019-05-29T07:49:38.418Z,4.40
2019-05-29T07:51:34.587Z,4.27
2019-05-29T07:53:38.469Z,3.60
2019-05-29T07:55:42.666Z,4.30
2019-05-29T07:57:47.000Z,1.60
2019-05-29T07:59:51.225Z,1.90
2019-05-29T08:01:55.171Z,3.53
2019-05-29T08:03:59.029Z,2.10
2019-05-29T08:06:03.005Z,2.07
2019-05-29T08:08:06.938Z,4.67
2019-05-29T08:10:11.346Z,2.10
2019-05-29T08:12:15.272Z,1.90
2019-05-29T08:14:19.172Z,3.97
2019-05-29T08:16:23.033Z,3.30
2019-05-29T08:18:27.196Z,2.63
2019-05-29T08:20:31.084Z,2.10
2019-05-29T08:22:35.111Z,3.80
2019-05-29T08:24:40.535Z,1.80
2019-05-29T08:26:45.058Z,3.23
2019-05-29T08:28:49.056Z,10.20
2019-05-29T08:30:56.323Z,3.30
2019-05-29T08:32:58.514Z,4.73
2019-05-29T08:35:02.427Z,5.37
2019-05-29T08:37:07.562Z,3.90
2019-05-29T08:39:11.609Z,3.90
2019-05-29T08:41:15.533Z,3.63
2019-05-29T08:43:19.421Z,3.03
2019-05-29T08:45:23.336Z,2.77
2019-05-29T08:47:27.233Z,5.60
2019-05-29T08:49:31.111Z,2.83
2019-05-29T08:51:35.045Z,3.17
2019-05-29T08:53:38.934Z,3.03
2019-05-29T08:55:44.109Z,2.27
2019-05-29T08:57:48.479Z,5.90
2019-05-29T08:59:52.714Z,1.73
2019-05-29T09:01:56.770Z,3.17
2019-05-29T09:04:00.687Z,2.60
2019-05-29T09:06:08.935Z,3.40
2019-05-29T09:08:10.250Z,2.10
2019-05-29T09:10:14.531Z,2.27
2019-05-29T09:12:18.424Z,1.50
2019-05-29T09:14:22.390Z,1.53
2019-05-29T09:16:26.359Z,1.30
2019-05-29T09:18:30.385Z,1.30
2019-05-29T09:21:00.106Z,1.30
2019-05-29T09:22:39.820Z,2.10
2019-05-29T09:24:43.742Z,2.83
2019-05-29T09:26:47.676Z,3.20
2019-05-29T09:28:51.629Z,2.73
2019-05-29T09:30:55.593Z,2.67
2019-05-29T09:32:59.470Z,1.83
2019-05-29T09:35:03.403Z,1.20
2019-05-29T09:37:07.469Z,1.43
2019-05-29T09:39:11.415Z,2.33
2019-05-29T09:41:16.188Z,2.60
2019-05-29T09:43:26.515Z,4.03
2019-05-29T09:45:26.420Z,1.63
2019-05-29T09:47:30.356Z,2.90
2019-05-29T09:49:34.274Z,2.17
2019-05-29T09:51:38.175Z,2.90
2019-05-29T09:53:42.101Z,1.43
2019-05-29T09:55:45.996Z,3.90
2019-05-29T09:57:49.917Z,2.43
2019-05-29T09:59:54.480Z,1.50
2019-05-29T10:02:00.366Z,4.43
2019-05-29T10:04:06.263Z,3.77
2019-05-29T10:06:10.443Z,2.07
2019-05-29T10:08:16.946Z,1.87
2019-05-29T10:10:20.106Z,1.83
2019-05-29T10:12:23.988Z,2.40
2019-05-29T10:14:27.916Z,3.90
2019-05-29T10:16:31.796Z,2.53
2019-05-29T10:18:35.695Z,3.20
2019-05-29T10:20:39.619Z,2.33
2019-05-29T10:22:43.501Z,3.43
2019-05-29T10:24:47.447Z,2.07
2019-05-29T10:26:51.352Z,1.33
2019-05-29T10:29:06.821Z,1.77
2019-05-29T10:31:03.750Z,2.00
2019-05-29T10:33:06.432Z,1.73
2019-05-29T10:35:10.420Z,4.17
2019-05-29T10:37:17.926Z,2.67
2019-05-29T10:39:19.892Z,1.93
2019-05-29T10:41:23.805Z,2.77
2019-05-29T10:43:34.118Z,3.77
2019-05-29T10:45:33.273Z,2.30
2019-05-29T10:47:37.195Z,2.97
2019-05-29T10:49:41.129Z,1.50
2019-05-29T10:52:01.649Z,3.40
2019-05-29T10:53:53.101Z,2.40
2019-05-29T10:55:56.156Z,3.13
2019-05-29T10:58:00.078Z,1.73
2019-05-29T11:00:08.837Z,2.57
2019-05-29T11:02:12.740Z,3.70
2019-05-29T11:04:16.682Z,1.17
2019-05-29T11:06:20.580Z,1.63
2019-05-29T11:08:24.460Z,1.80
2019-05-29T11:10:28.408Z,2.50
2019-05-29T11:12:32.280Z,1.80
2019-05-29T11:14:36.186Z,3.03
2019-05-29T11:16:40.147Z,2.23
2019-05-29T11:18:44.089Z,1.70
2019-05-29T11:20:49.066Z,2.07
2019-05-29T11:22:53.686Z,1.83
2019-05-29T11:25:00.172Z,1.47
2019-05-29T11:27:03.322Z,2.23
2019-05-29T11:29:07.349Z,1.97
2019-05-29T11:31:11.779Z,1.70
2019-05-29T11:35:20.443Z,2.27
2019-05-29T11:37:24.348Z,2.70
2019-05-29T11:39:28.274Z,2.27
2019-05-29T11:41:32.139Z,2.70
2019-05-29T11:43:36.092Z,2.90
2019-05-29T11:45:40.070Z,2.47
2019-05-29T11:47:43.985Z,2.03
2019-05-29T11:49:47.910Z,1.30
2019-05-29T11:51:53.601Z,1.20
2019-05-29T11:53:57.594Z,1.90
2019-05-29T11:56:02.051Z,2.97
2019-05-29T11:58:06.106Z,1.40
2019-05-29T12:00:19.469Z,1.40
2019-05-29T12:02:18.575Z,3.27
2019-05-29T12:04:26.670Z,1.77
2019-05-29T12:06:28.062Z,1.23
2019-05-29T12:08:31.996Z,1.40
2019-05-29T12:10:35.926Z,2.13
2019-05-29T12:12:39.817Z,1.87
2019-05-29T12:14:58.897Z,1.10
2019-05-29T12:16:49.425Z,1.83
2019-05-29T12:18:53.656Z,1.33
2019-05-29T12:20:58.629Z,1.03
2019-05-29T12:23:25.658Z,0.80
2019-05-29T12:25:09.194Z,1.27
2019-05-29T12:27:13.131Z,1.60
2019-05-29T12:29:17.025Z,0.70
2019-05-29T12:31:20.914Z,1.93
2019-05-29T12:33:24.848Z,1.30
2019-05-29T12:35:28.732Z,2.80
2019-05-29T12:37:32.683Z,2.97
2019-05-29T12:39:36.560Z,1.63
2019-05-29T12:41:40.456Z,1.27
2019-05-29T12:43:44.398Z,0.87
2019-05-29T12:45:48.258Z,1.57
2019-05-29T12:47:53.836Z,0.77
2019-05-29T12:49:57.758Z,2.70
2019-05-29T12:52:02.139Z,2.00
2019-05-29T12:54:06.503Z,2.00
2019-05-29T12:56:10.377Z,1.17
2019-05-29T12:58:14.444Z,1.13
2019-05-29T13:00:20.282Z,1.13
2019-05-29T13:02:24.183Z,2.20
2019-05-29T13:04:28.113Z,2.20
2019-05-29T13:06:32.022Z,3.43
2019-05-29T13:08:35.943Z,2.50
2019-05-29T13:10:39.881Z,1.00
2019-05-29T13:12:44.008Z,2.10
2019-05-29T13:14:48.175Z,1.10
2019-05-29T13:16:52.113Z,1.70
2019-05-29T13:18:57.009Z,1.43
2019-05-29T13:21:01.601Z,2.97
2019-05-29T13:23:07.388Z,1.13
2019-05-29T13:25:12.514Z,1.60
2019-05-29T13:27:16.442Z,1.83
2019-05-29T13:29:20.337Z,1.83
2019-05-29T13:31:24.240Z,1.30
2019-05-29T13:33:28.658Z,1.60
2019-05-29T13:35:32.561Z,3.30
2019-05-29T13:37:36.513Z,1.50
2019-05-29T13:39:40.399Z,1.53
2019-05-29T13:41:44.324Z,2.07
2019-05-29T13:43:48.285Z,0.80
2019-05-29T13:45:52.200Z,1.60
2019-05-29T13:47:56.795Z,1.10
2019-05-29T13:50:05.463Z,0.73
2019-05-29T13:52:11.703Z,1.90
2019-05-29T13:54:17.540Z,0.70
2019-05-29T13:56:17.542Z,2.30
2019-05-29T13:58:21.572Z,2.10
2019-05-29T14:00:33.296Z,1.77
2019-05-29T14:02:31.299Z,2.90
2019-05-29T14:04:35.228Z,1.13
2019-05-29T14:06:39.129Z,2.30
2019-05-29T14:08:43.019Z,2.27
2019-05-29T14:10:46.940Z,1.10
2019-05-29T14:12:50.871Z,2.17
2019-05-29T14:14:54.797Z,1.37
2019-05-29T14:16:58.682Z,0.97
2019-05-29T14:19:02.842Z,1.10
2019-05-29T14:21:07.501Z,0.60
2019-05-29T14:23:11.810Z,2.07
2019-05-29T14:25:16.257Z,2.93
2019-05-29T14:27:20.137Z,1.00
2019-05-29T14:29:24.050Z,1.87
2019-05-29T14:31:27.966Z,3.37
2019-05-29T14:33:31.881Z,1.03
2019-05-29T14:35:35.812Z,1.10
2019-05-29T14:37:39.714Z,1.17
2019-05-29T14:39:43.685Z,0.90
2019-05-29T14:41:47.570Z,0.93
2019-05-29T14:43:51.536Z,0.83
2019-05-29T14:45:55.429Z,0.70
2019-05-29T14:47:59.345Z,0.80
2019-05-29T14:50:06.277Z,2.20
2019-05-29T14:52:11.600Z,1.20
2019-05-29T14:54:16.085Z,1.33
2019-05-29T14:56:20.052Z,1.00
2019-05-29T14:58:24.022Z,2.67
2019-05-29T15:00:28.205Z,1.53
2019-05-29T15:02:32.076Z,2.37
2019-05-29T15:04:36.039Z,1.00
2019-05-29T15:06:39.923Z,3.23
2019-05-29T15:08:43.811Z,1.57
2019-05-29T15:10:47.729Z,1.33
2019-05-29T15:12:51.667Z,1.33
2019-05-29T15:14:55.698Z,5.13
2019-05-29T15:16:59.615Z,2.27
2019-05-29T15:19:04.954Z,0.87
2019-05-29T15:21:09.113Z,0.60
2019-05-29T15:23:13.507Z,1.47
2019-05-29T15:25:23.742Z,2.87
2019-05-29T15:27:23.114Z,2.57
2019-05-29T15:29:27.019Z,0.80
2019-05-29T15:31:30.935Z,1.30
2019-05-29T15:33:34.853Z,1.23
2019-05-29T15:35:38.770Z,1.33
2019-05-29T15:37:42.691Z,2.40
2019-05-29T15:39:46.710Z,0.80
2019-05-29T15:41:50.607Z,2.10
2019-05-29T15:43:54.540Z,0.73
2019-05-29T15:45:58.459Z,1.20
2019-05-29T15:48:02.426Z,1.10
2019-05-29T15:50:11.456Z,1.70
2019-05-29T15:52:15.558Z,1.20
2019-05-29T15:54:19.497Z,1.50
2019-05-29T15:56:27.856Z,1.20
2019-05-29T15:58:28.914Z,1.10
2019-05-29T16:00:32.943Z,0.83
2019-05-29T16:02:36.885Z,1.17
2019-05-29T16:04:40.766Z,1.17
2019-05-29T16:06:44.731Z,1.83
2019-05-29T16:08:48.657Z,0.93
2019-05-29T16:10:52.629Z,1.53
2019-05-29T16:12:56.508Z,1.10
2019-05-29T16:15:00.400Z,1.17
2019-05-29T16:17:04.470Z,2.57
2019-05-29T16:19:08.335Z,2.53
2019-05-29T16:21:12.575Z,2.70
2019-05-29T16:23:29.924Z,3.03
2019-05-29T16:25:38.770Z,1.30
2019-05-29T16:27:30.977Z,1.53
2019-05-29T16:29:33.418Z,3.03
2019-05-29T16:31:37.357Z,1.77
2019-05-29T16:33:41.254Z,2.23
2019-05-29T16:35:45.424Z,4.27
2019-05-29T16:37:49.437Z,1.47
2019-05-29T16:39:53.334Z,2.50
2019-05-29T16:41:57.284Z,0.80
2019-05-29T16:44:01.393Z,0.80
2019-05-29T16:46:05.379Z,1.00
2019-05-29T16:48:09.261Z,2.87
2019-05-29T16:50:14.771Z,0.70
2019-05-29T16:52:18.938Z,2.17
2019-05-29T16:54:23.270Z,3.27
2019-05-29T16:56:27.457Z,1.93
2019-05-29T16:58:31.356Z,1.00
2019-05-29T17:00:35.288Z,1.30
2019-05-29T17:02:39.710Z,1.50
2019-05-29T17:04:43.672Z,2.17
2019-05-29T17:06:47.599Z,2.87
2019-05-29T17:08:51.470Z,3.17
2019-05-29T17:10:55.404Z,0.83
2019-05-29T17:12:59.311Z,1.83
2019-05-29T17:15:03.269Z,2.60
2019-05-29T17:17:07.221Z,1.53
2019-05-29T17:19:11.113Z,1.17
2019-05-29T17:21:15.004Z,1.17
2019-05-29T17:23:19.061Z,2.00
2019-05-29T17:25:27.952Z,2.37
2019-05-29T17:27:28.470Z,1.90
2019-05-29T17:29:32.403Z,2.93
2019-05-29T17:31:36.359Z,1.50
2019-05-29T17:33:40.226Z,1.73
2019-05-29T17:35:44.101Z,1.20
2019-05-29T17:37:48.149Z,1.70
2019-05-29T17:39:52.031Z,1.80
2019-05-29T17:41:55.948Z,1.50
2019-05-29T17:43:59.829Z,2.23
2019-05-29T17:46:03.871Z,4.10
2019-05-29T17:48:07.753Z,1.87
2019-05-29T17:50:11.766Z,1.93
2019-05-29T17:52:15.805Z,1.80
2019-05-29T17:54:19.830Z,1.70
2019-05-29T17:56:35.568Z,2.53
2019-05-29T17:58:29.411Z,1.20
2019-05-29T18:00:33.621Z,1.90
2019-05-29T18:02:51.584Z,4.00
2019-05-29T18:04:43.072Z,3.03
2019-05-29T18:06:46.981Z,2.80
2019-05-29T18:08:50.903Z,1.43
2019-05-29T18:10:54.827Z,1.10
2019-05-29T18:12:58.762Z,2.13
2019-05-29T18:15:02.641Z,1.63
2019-05-29T18:17:06.579Z,1.97
2019-05-29T18:19:10.498Z,1.60
2019-05-29T18:21:14.400Z,1.03
2019-05-29T18:23:19.814Z,1.10
2019-05-29T18:25:24.044Z,2.23
2019-05-29T18:27:28.227Z,3.67
2019-05-29T18:29:32.265Z,2.20
2019-05-29T18:31:36.157Z,0.90
2019-05-29T18:33:40.077Z,2.93
2019-05-29T18:35:43.985Z,1.13
2019-05-29T18:37:47.852Z,2.07
2019-05-29T18:39:51.893Z,1.97
2019-05-29T18:41:55.792Z,1.10
2019-05-29T18:43:59.662Z,1.40
2019-05-29T18:46:03.616Z,3.83
2019-05-29T18:48:07.510Z,3.03
2019-05-29T18:50:13.531Z,2.90
2019-05-29T18:52:17.556Z,2.00
2019-05-29T18:54:21.633Z,4.07
2019-05-29T18:56:26.479Z,2.10
2019-05-29T18:58:30.787Z,3.33
2019-05-29T19:00:34.721Z,0.97
2019-05-29T19:02:38.950Z,2.27
2019-05-29T19:04:42.865Z,2.20
2019-05-29T19:06:46.744Z,2.20
2019-05-29T19:08:50.646Z,1.03
2019-05-29T19:10:54.565Z,2.67
2019-05-29T19:12:58.478Z,1.30
2019-05-29T19:15:02.361Z,1.30
2019-05-29T19:17:06.297Z,1.13
2019-05-29T19:19:10.233Z,3.43
2019-05-29T19:21:14.146Z,3.10
2019-05-29T19:23:18.375Z,2.53
2019-05-29T19:25:22.645Z,1.73
2019-05-29T19:27:33.217Z,1.90
2019-05-29T19:29:33.334Z,1.07
2019-05-29T19:31:37.468Z,1.00
2019-05-29T19:33:41.367Z,2.33
2019-05-29T19:35:45.353Z,1.43
2019-05-29T19:37:49.239Z,1.87
2019-05-29T19:39:53.126Z,1.93
2019-05-29T19:41:57.193Z,4.10
2019-05-29T19:44:01.176Z,1.10
2019-05-29T19:46:05.400Z,1.83
2019-05-29T19:48:09.428Z,1.20
2019-05-29T19:50:13.850Z,0.70
2019-05-29T19:52:17.757Z,2.37
2019-05-29T19:54:21.685Z,1.30
2019-05-29T19:56:25.622Z,1.23
2019-05-29T19:58:29.827Z,1.80
2019-05-29T20:00:34.279Z,1.10
2019-05-29T20:02:39.225Z,1.67
2019-05-29T20:04:43.138Z,2.50
2019-05-29T20:06:47.041Z,1.20
2019-05-29T20:08:50.952Z,1.27
2019-05-29T20:10:54.884Z,1.93
2019-05-29T20:12:58.768Z,2.90
2019-05-29T20:15:02.660Z,2.30
2019-05-29T20:17:06.641Z,2.03
2019-05-29T20:19:10.552Z,4.83
2019-05-29T20:21:14.471Z,2.97
2019-05-29T20:23:19.513Z,1.17
2019-05-29T20:25:23.404Z,2.00
2019-05-29T20:27:27.281Z,1.80
2019-05-29T20:29:32.334Z,1.77
2019-05-29T20:31:36.613Z,1.70
2019-05-29T20:33:40.661Z,2.60
2019-05-29T20:35:44.579Z,2.43
2019-05-29T20:37:48.448Z,2.20
2019-05-29T20:39:52.385Z,2.03
2019-05-29T20:41:56.279Z,1.40
2019-05-29T20:44:00.206Z,1.80
2019-05-29T20:46:07.977Z,1.40
2019-05-29T20:48:13.726Z,1.60
2019-05-29T20:50:20.184Z,1.20
2019-05-29T20:52:24.096Z,3.13
2019-05-29T20:54:28.508Z,1.43
2019-05-29T20:56:33.953Z,1.50
2019-05-29T20:58:38.010Z,1.43
2019-05-29T21:00:42.358Z,2.53
2019-05-29T21:02:46.428Z,1.50
2019-05-29T21:04:50.384Z,1.40
2019-05-29T21:06:56.973Z,3.60
2019-05-29T21:09:00.924Z,2.30
2019-05-29T21:11:05.628Z,1.57
2019-05-29T21:13:09.522Z,2.03
2019-05-29T21:15:16.163Z,4.30
2019-05-29T21:17:20.160Z,2.97
2019-05-29T21:19:24.047Z,2.73
2019-05-29T21:21:28.421Z,1.63
2019-05-29T21:23:32.327Z,1.90
2019-05-29T21:25:36.596Z,1.60
2019-05-29T21:27:43.921Z,1.60
2019-05-29T21:29:46.609Z,3.80
2019-05-29T21:31:50.520Z,1.60
2019-05-29T21:33:54.452Z,2.53
2019-05-29T21:35:58.367Z,1.40
2019-05-29T21:38:02.544Z,1.70
2019-05-29T21:40:07.282Z,2.43
2019-05-29T21:42:11.176Z,2.20
2019-05-29T21:44:15.085Z,2.73
2019-05-29T21:46:19.510Z,1.60
2019-05-29T21:48:23.419Z,1.77
2019-05-29T21:50:27.350Z,2.60
2019-05-29T21:52:31.264Z,1.83
2019-05-29T21:54:35.145Z,1.70
2019-05-29T21:56:41.615Z,2.37
2019-05-29T21:59:01.175Z,1.87
2019-05-29T22:00:53.156Z,2.27
2019-05-29T22:02:57.189Z,4.10
2019-05-29T22:05:01.090Z,3.13
2019-05-29T22:07:05.163Z,3.50
2019-05-29T22:09:17.209Z,2.93
2019-05-29T22:11:21.784Z,2.90
2019-05-29T22:13:25.696Z,2.97
2019-05-29T22:15:30.587Z,2.77
2019-05-29T22:17:36.534Z,2.37
2019-05-29T22:19:41.098Z,2.23
2019-05-29T22:21:45.377Z,3.93
2019-05-29T22:23:49.283Z,2.13
2019-05-29T22:25:55.268Z,3.60
2019-05-29T22:27:59.523Z,2.63
2019-05-29T22:30:05.034Z,2.93
2019-05-29T22:32:08.948Z,2.10
2019-05-29T22:34:12.853Z,2.10
2019-05-29T22:36:16.793Z,4.03
2019-05-29T22:38:20.694Z,2.37
2019-05-29T22:40:24.565Z,2.23
2019-05-29T22:42:28.487Z,2.63
2019-05-29T22:44:32.376Z,3.03
2019-05-29T22:46:36.318Z,2.47
2019-05-29T22:48:40.230Z,3.83
2019-05-29T22:50:44.101Z,3.23
2019-05-29T22:52:48.020Z,2.80
2019-05-29T22:54:52.030Z,4.43
2019-05-29T22:56:55.964Z,3.20
2019-05-29T22:59:00.194Z,1.90
2019-05-29T23:01:04.163Z,2.33
2019-05-29T23:03:08.071Z,3.17
2019-05-29T23:05:11.989Z,1.60
2019-05-29T23:07:15.878Z,3.53
2019-05-29T23:09:19.809Z,3.13
2019-05-29T23:11:23.709Z,2.83
2019-05-29T23:13:27.676Z,3.70
2019-05-29T23:15:31.551Z,2.20
2019-05-29T23:17:35.451Z,2.53
2019-05-29T23:19:39.498Z,2.23
2019-05-29T23:21:43.396Z,2.47
2019-05-29T23:23:47.298Z,2.00
2019-05-29T23:25:52.455Z,1.90
2019-05-29T23:27:56.970Z,3.90
2019-05-29T23:30:01.105Z,2.13
2019-05-29T23:32:05.276Z,1.90
2019-05-29T23:34:09.174Z,2.97
2019-05-29T23:36:13.121Z,3.80
2019-05-29T23:38:17.013Z,2.40
2019-05-29T23:40:21.128Z,3.80
2019-05-29T23:42:25.051Z,2.23
2019-05-29T23:44:28.969Z,4.00
2019-05-29T23:46:32.867Z,2.00
2019-05-29T23:48:36.791Z,2.43
2019-05-29T23:50:40.711Z,2.80
2019-05-29T23:52:44.633Z,2.40
2019-05-29T23:54:48.529Z,1.43
2019-05-29T23:56:53.698Z,1.20
2019-05-29T23:58:57.786Z,2.73
